createdAt,value
2023-05-07T00:00:02.415Z,86.44
2023-05-07T00:01:04.388Z,86.71
2023-05-07T00:02:06.253Z,86.20
2023-05-07T00:03:08.430Z,86.14
2023-05-07T00:04:10.858Z,85.74
2023-05-07T00:05:13.775Z,85.40
2023-05-07T00:06:16.211Z,84.86
2023-05-07T00:07:18.073Z,84.91
2023-05-07T00:08:20.632Z,85.72
2023-05-07T00:09:22.691Z,85.32
2023-05-07T00:10:24.600Z,85.97
2023-05-07T00:11:27.167Z,86.58
2023-05-07T00:12:29.005Z,86.17
2023-05-07T00:13:36.711Z,85.63
2023-05-07T00:14:38.616Z,85.39
2023-05-07T00:15:40.555Z,85.08
2023-05-07T00:16:42.613Z,85.62
2023-05-07T00:17:44.517Z,85.44
2023-05-07T00:18:46.521Z,85.12
2023-05-07T00:19:49.108Z,85.27
2023-05-07T00:20:51.446Z,85.30
2023-05-07T00:21:55.213Z,84.82
2023-05-07T00:22:57.061Z,85.31
2023-05-07T00:23:58.964Z,85.21
2023-05-07T00:25:01.596Z,84.90
2023-05-07T00:26:04.041Z,85.22
2023-05-07T00:27:06.680Z,85.07
2023-05-07T00:28:08.565Z,85.62
2023-05-07T00:29:10.408Z,85.50
2023-05-07T00:30:13.085Z,86.10
2023-05-07T00:31:15.017Z,86.71
2023-05-07T00:32:17.072Z,86.48
2023-05-07T00:33:18.945Z,86.79
2023-05-07T00:34:20.868Z,86.49
2023-05-07T00:35:22.716Z,86.30
2023-05-07T00:36:24.568Z,86.18
2023-05-07T00:37:26.504Z,86.16
2023-05-07T00:38:28.341Z,86.40
2023-05-07T00:39:30.188Z,86.60
2023-05-07T00:40:32.103Z,86.47
2023-05-07T00:41:33.951Z,87.14
2023-05-07T00:42:35.893Z,87.16
2023-05-07T00:43:37.775Z,87.17
2023-05-07T00:44:39.633Z,87.14
2023-05-07T00:45:41.486Z,86.79
2023-05-07T00:46:43.409Z,86.62
2023-05-07T00:47:45.419Z,86.88
2023-05-07T00:48:47.416Z,86.54
2023-05-07T00:49:49.313Z,86.89
2023-05-07T00:50:51.210Z,86.39
2023-05-07T00:51:53.109Z,86.19
2023-05-07T00:52:55.162Z,86.01
2023-05-07T00:53:57.051Z,85.89
2023-05-07T00:54:58.926Z,85.86
2023-05-07T00:56:02.190Z,85.72
2023-05-07T00:57:05.257Z,85.81
2023-05-07T00:58:07.696Z,85.70
2023-05-07T00:59:09.782Z,85.79
2023-05-07T01:00:13.200Z,85.75
2023-05-07T01:01:17.909Z,85.33
2023-05-07T01:02:19.907Z,85.40
2023-05-07T01:03:22.398Z,85.22
2023-05-07T01:04:24.802Z,85.01
2023-05-07T01:05:28.875Z,85.12
2023-05-07T01:06:33.252Z,85.04
2023-05-07T01:07:36.150Z,85.48
2023-05-07T01:08:38.082Z,85.86
2023-05-07T01:09:40.061Z,85.57
2023-05-07T01:10:44.274Z,85.72
2023-05-07T01:11:46.294Z,85.76
2023-05-07T01:12:49.514Z,85.75
2023-05-07T01:13:52.061Z,85.24
2023-05-07T01:14:54.330Z,85.47
2023-05-07T01:15:56.164Z,85.15
2023-05-07T01:16:58.163Z,85.58
2023-05-07T01:18:00.184Z,86.09
2023-05-07T01:19:02.448Z,85.84
2023-05-07T01:20:06.457Z,86.16
2023-05-07T01:21:10.268Z,86.83
2023-05-07T01:22:13.201Z,87.30
2023-05-07T01:23:15.459Z,87.23
2023-05-07T01:24:18.011Z,87.58
2023-05-07T01:25:19.936Z,87.68
2023-05-07T01:26:21.849Z,87.65
2023-05-07T01:27:23.702Z,87.19
2023-05-07T01:28:25.550Z,87.65
2023-05-07T01:29:27.615Z,87.65
2023-05-07T01:30:29.953Z,87.57
2023-05-07T01:31:31.921Z,87.28
2023-05-07T01:32:37.229Z,87.04
2023-05-07T01:33:39.795Z,87.00
2023-05-07T01:34:41.926Z,87.17
2023-05-07T01:35:46.828Z,87.18
2023-05-07T01:36:50.286Z,87.60
2023-05-07T01:37:52.546Z,88.26
2023-05-07T01:38:54.613Z,88.60
2023-05-07T01:39:56.869Z,88.59
2023-05-07T01:40:59.131Z,88.72
2023-05-07T01:42:01.253Z,89.11
2023-05-07T01:43:03.714Z,88.65
2023-05-07T01:44:07.026Z,88.36
2023-05-07T01:45:09.243Z,88.49
2023-05-07T01:46:12.141Z,88.16
2023-05-07T01:47:15.008Z,88.20
2023-05-07T01:48:16.904Z,88.18
2023-05-07T01:49:18.805Z,88.37
2023-05-07T01:50:20.806Z,88.13
2023-05-07T01:51:23.596Z,87.97
2023-05-07T01:52:26.364Z,87.67
2023-05-07T01:53:29.688Z,87.65
2023-05-07T01:54:32.103Z,88.09
2023-05-07T01:55:34.021Z,87.80
2023-05-07T01:56:36.475Z,87.46
2023-05-07T01:57:38.304Z,87.34
2023-05-07T01:58:40.212Z,87.25
2023-05-07T01:59:42.005Z,87.18
2023-05-07T02:00:43.893Z,86.96
2023-05-07T02:01:45.822Z,87.97
2023-05-07T02:02:47.827Z,87.92
2023-05-07T02:03:49.809Z,88.08
2023-05-07T02:04:51.762Z,88.42
2023-05-07T02:05:54.108Z,88.32
2023-05-07T02:06:57.018Z,87.61
2023-05-07T02:07:58.866Z,87.19
2023-05-07T02:09:00.649Z,87.29
2023-05-07T02:10:02.643Z,87.22
2023-05-07T02:11:05.030Z,87.40
2023-05-07T02:12:06.853Z,87.26
2023-05-07T02:13:08.816Z,86.92
2023-05-07T02:14:10.666Z,87.02
2023-05-07T02:15:12.626Z,87.06
2023-05-07T02:16:15.851Z,87.49
2023-05-07T02:17:17.789Z,87.24
2023-05-07T02:18:19.652Z,87.25
2023-05-07T02:19:22.429Z,86.65
2023-05-07T02:20:24.239Z,86.80
2023-05-07T02:21:27.303Z,87.03
2023-05-07T02:22:30.266Z,87.28
2023-05-07T02:23:32.184Z,87.43
2023-05-07T02:24:33.977Z,87.19
2023-05-07T02:25:35.887Z,86.98
2023-05-07T02:26:37.815Z,87.33
2023-05-07T02:27:39.705Z,87.44
2023-05-07T02:28:41.540Z,87.44
2023-05-07T02:29:43.371Z,87.57
2023-05-07T02:30:45.299Z,88.20
2023-05-07T02:31:47.254Z,88.09
2023-05-07T02:32:49.211Z,87.69
2023-05-07T02:33:51.093Z,87.64
2023-05-07T02:34:53.529Z,87.66
2023-05-07T02:35:55.402Z,87.61
2023-05-07T02:36:57.376Z,87.38
2023-05-07T02:37:59.219Z,87.20
2023-05-07T02:39:01.481Z,87.40
2023-05-07T02:40:04.879Z,87.04
2023-05-07T02:41:06.783Z,86.86
2023-05-07T02:42:08.679Z,87.08
2023-05-07T02:43:10.508Z,87.14
2023-05-07T02:44:12.410Z,87.45
2023-05-07T02:45:14.275Z,87.03
2023-05-07T02:46:17.092Z,87.84
2023-05-07T02:47:18.975Z,87.75
2023-05-07T02:48:21.060Z,88.40
2023-05-07T02:49:22.956Z,88.72
2023-05-07T02:50:24.856Z,88.49
2023-05-07T02:51:27.438Z,88.34
2023-05-07T02:52:29.237Z,87.76
2023-05-07T02:53:31.252Z,87.67
2023-05-07T02:54:33.193Z,87.27
2023-05-07T02:55:35.112Z,87.18
2023-05-07T02:56:37.021Z,86.73
2023-05-07T02:57:38.924Z,87.20
2023-05-07T02:58:40.984Z,88.55
2023-05-07T02:59:43.233Z,87.85
2023-05-07T03:00:45.130Z,87.71
2023-05-07T03:01:47.103Z,88.10
2023-05-07T03:02:49.098Z,87.84
2023-05-07T03:03:51.140Z,87.83
2023-05-07T03:04:53.128Z,87.68
2023-05-07T03:05:55.029Z,88.19
2023-05-07T03:06:56.889Z,87.98
2023-05-07T03:07:58.637Z,87.80
2023-05-07T03:09:00.532Z,87.82
2023-05-07T03:10:02.464Z,87.60
2023-05-07T03:11:04.383Z,87.54
2023-05-07T03:12:06.293Z,87.07
2023-05-07T03:13:08.215Z,86.90
2023-05-07T03:14:10.168Z,87.53
2023-05-07T03:15:13.947Z,87.79
2023-05-07T03:16:15.842Z,88.50
2023-05-07T03:17:17.736Z,88.72
2023-05-07T03:18:19.758Z,89.35
2023-05-07T03:19:22.006Z,89.44
2023-05-07T03:20:23.889Z,89.42
2023-05-07T03:21:27.746Z,89.04
2023-05-07T03:22:29.610Z,88.56
2023-05-07T03:23:31.412Z,88.52
2023-05-07T03:24:33.378Z,88.73
2023-05-07T03:25:35.233Z,89.05
2023-05-07T03:26:37.112Z,88.88
2023-05-07T03:27:39.558Z,88.38
2023-05-07T03:28:41.412Z,88.13
2023-05-07T03:29:43.342Z,88.40
2023-05-07T03:30:45.194Z,88.19
2023-05-07T03:31:47.114Z,88.16
2023-05-07T03:32:49.119Z,89.02
2023-05-07T03:33:57.401Z,88.77
2023-05-07T03:34:59.298Z,89.23
2023-05-07T03:36:01.312Z,88.94
2023-05-07T03:37:03.227Z,88.88
2023-05-07T03:38:05.119Z,88.73
2023-05-07T03:39:06.918Z,88.35
2023-05-07T03:40:09.826Z,88.92
2023-05-07T03:41:11.953Z,88.69
2023-05-07T03:42:13.868Z,88.84
2023-05-07T03:43:15.981Z,89.04
2023-05-07T03:44:17.824Z,88.49
2023-05-07T03:45:19.843Z,88.77
2023-05-07T03:46:21.764Z,88.84
2023-05-07T03:47:23.662Z,88.60
2023-05-07T03:48:26.063Z,88.22
2023-05-07T03:49:27.880Z,88.94
2023-05-07T03:50:29.765Z,89.29
2023-05-07T03:51:31.864Z,89.00
2023-05-07T03:52:33.705Z,89.02
2023-05-07T03:53:35.599Z,88.84
2023-05-07T03:54:38.052Z,88.54
2023-05-07T03:55:40.059Z,88.69
2023-05-07T03:56:41.931Z,88.92
2023-05-07T03:57:43.704Z,89.11
2023-05-07T03:58:45.713Z,89.22
2023-05-07T03:59:47.577Z,89.11
2023-05-07T04:00:50.221Z,88.92
2023-05-07T04:01:52.281Z,88.44
2023-05-07T04:02:54.245Z,88.67
2023-05-07T04:03:56.229Z,88.71
2023-05-07T04:04:58.131Z,88.46
2023-05-07T04:06:00.037Z,88.88
2023-05-07T04:07:01.924Z,88.77
2023-05-07T04:08:03.817Z,89.36
2023-05-07T04:09:05.744Z,89.13
2023-05-07T04:10:07.976Z,89.13
2023-05-07T04:11:10.129Z,89.10
2023-05-07T04:12:11.964Z,89.13
2023-05-07T04:13:14.458Z,89.00
2023-05-07T04:14:16.372Z,89.29
2023-05-07T04:15:18.250Z,89.09
2023-05-07T04:16:20.166Z,89.14
2023-05-07T04:17:22.201Z,89.18
2023-05-07T04:18:24.053Z,88.80
2023-05-07T04:19:25.958Z,89.04
2023-05-07T04:20:27.832Z,88.81
2023-05-07T04:21:29.851Z,88.89
2023-05-07T04:22:31.688Z,88.87
2023-05-07T04:23:33.601Z,88.85
2023-05-07T04:24:35.657Z,88.51
2023-05-07T04:25:37.534Z,89.00
2023-05-07T04:26:39.476Z,88.83
2023-05-07T04:27:41.352Z,89.34
2023-05-07T04:28:43.750Z,89.50
2023-05-07T04:29:48.436Z,90.10
2023-05-07T04:30:50.300Z,90.35
2023-05-07T04:31:52.347Z,90.06
2023-05-07T04:32:54.374Z,90.07
2023-05-07T04:33:56.559Z,89.92
2023-05-07T04:34:58.410Z,90.06
2023-05-07T04:36:04.187Z,89.84
2023-05-07T04:37:06.072Z,89.95
2023-05-07T04:38:07.918Z,89.37
2023-05-07T04:39:10.125Z,90.04
2023-05-07T04:40:12.323Z,89.42
2023-05-07T04:41:14.638Z,89.49
2023-05-07T04:42:17.019Z,89.20
2023-05-07T04:43:18.859Z,89.30
2023-05-07T04:44:20.674Z,89.33
2023-05-07T04:45:22.579Z,89.23
2023-05-07T04:46:25.742Z,89.23
2023-05-07T04:47:27.879Z,89.15
2023-05-07T04:48:30.245Z,89.46
2023-05-07T04:49:32.139Z,89.14
2023-05-07T04:50:34.152Z,89.65
2023-05-07T04:51:36.060Z,89.40
2023-05-07T04:52:38.046Z,89.42
2023-05-07T04:53:39.860Z,89.76
2023-05-07T04:54:41.730Z,89.48
2023-05-07T04:55:44.186Z,89.45
2023-05-07T04:56:46.178Z,89.15
2023-05-07T04:57:48.647Z,89.27
2023-05-07T04:58:50.516Z,89.35
2023-05-07T04:59:52.321Z,89.29
2023-05-07T05:00:54.190Z,89.01
2023-05-07T05:01:57.198Z,88.86
2023-05-07T05:02:59.335Z,88.94
2023-05-07T05:04:01.975Z,88.62
2023-05-07T05:05:03.846Z,89.01
2023-05-07T05:06:05.911Z,89.04
2023-05-07T05:07:07.867Z,89.28
2023-05-07T05:08:09.959Z,89.15
2023-05-07T05:09:12.337Z,89.19
2023-05-07T05:10:14.559Z,89.19
2023-05-07T05:11:16.420Z,88.99
2023-05-07T05:12:18.327Z,89.45
2023-05-07T05:13:20.250Z,89.36
2023-05-07T05:14:22.308Z,89.43
2023-05-07T05:15:24.332Z,89.63
2023-05-07T05:16:26.192Z,89.58
2023-05-07T05:17:28.122Z,89.33
2023-05-07T05:18:30.028Z,89.45
2023-05-07T05:19:31.944Z,89.61
2023-05-07T05:20:33.778Z,89.63
2023-05-07T05:21:35.708Z,89.24
2023-05-07T05:22:37.601Z,89.28
2023-05-07T05:23:40.247Z,89.54
2023-05-07T05:24:42.206Z,89.40
2023-05-07T05:25:44.046Z,89.10
2023-05-07T05:26:46.022Z,89.21
2023-05-07T05:27:47.836Z,89.96
2023-05-07T05:28:49.758Z,89.71
2023-05-07T05:29:51.624Z,90.04
2023-05-07T05:30:53.566Z,90.08
2023-05-07T05:31:55.580Z,90.22
2023-05-07T05:32:57.642Z,90.41
2023-05-07T05:33:59.559Z,90.05
2023-05-07T05:35:01.569Z,90.07
2023-05-07T05:36:03.459Z,89.59
2023-05-07T05:37:05.290Z,89.73
2023-05-07T05:38:07.230Z,90.33
2023-05-07T05:39:10.203Z,90.07
2023-05-07T05:40:12.297Z,90.30
2023-05-07T05:41:14.600Z,90.48
2023-05-07T05:42:16.441Z,90.27
2023-05-07T05:43:18.356Z,90.39
2023-05-07T05:44:20.225Z,90.28
2023-05-07T05:45:22.076Z,90.43
2023-05-07T05:46:24.188Z,90.08
2023-05-07T05:47:26.179Z,90.01
2023-05-07T05:48:28.112Z,89.96
2023-05-07T05:49:30.028Z,90.05
2023-05-07T05:50:31.834Z,89.90
2023-05-07T05:51:33.668Z,89.89
2023-05-07T05:52:35.546Z,89.38
2023-05-07T05:53:37.292Z,89.36
2023-05-07T05:54:39.278Z,89.28
2023-05-07T05:55:41.179Z,89.29
2023-05-07T05:56:43.231Z,88.57
2023-05-07T05:57:45.064Z,88.69
2023-05-07T05:58:47.692Z,88.97
2023-05-07T05:59:49.707Z,88.99
2023-05-07T06:00:53.857Z,88.87
2023-05-07T06:01:55.821Z,89.10
2023-05-07T06:02:57.684Z,88.93
2023-05-07T06:03:59.492Z,89.21
2023-05-07T06:05:01.645Z,89.09
2023-05-07T06:06:03.554Z,89.00
2023-05-07T06:07:05.444Z,88.68
2023-05-07T06:08:07.370Z,88.83
2023-05-07T06:09:09.244Z,88.82
2023-05-07T06:10:11.538Z,89.16
2023-05-07T06:11:13.962Z,88.84
2023-05-07T06:12:15.737Z,88.73
2023-05-07T06:13:17.728Z,88.74
2023-05-07T06:14:19.631Z,88.64
2023-05-07T06:15:22.407Z,88.16
2023-05-07T06:16:25.714Z,88.28
2023-05-07T06:17:27.638Z,88.34
2023-05-07T06:18:29.469Z,88.31
2023-05-07T06:19:31.386Z,88.30
2023-05-07T06:20:33.268Z,88.27
2023-05-07T06:21:35.127Z,88.33
2023-05-07T06:22:36.954Z,88.15
2023-05-07T06:23:38.788Z,87.97
2023-05-07T06:24:40.650Z,87.82
2023-05-07T06:25:42.562Z,88.18
2023-05-07T06:26:44.376Z,88.44
2023-05-07T06:27:46.260Z,88.14
2023-05-07T06:28:48.186Z,88.65
2023-05-07T06:29:50.151Z,88.08
2023-05-07T06:30:52.193Z,88.52
2023-05-07T06:31:54.334Z,88.32
2023-05-07T06:32:56.264Z,88.02
2023-05-07T06:33:58.277Z,87.93
2023-05-07T06:35:00.119Z,88.27
2023-05-07T06:36:02.154Z,88.06
2023-05-07T06:37:04.292Z,87.96
2023-05-07T06:38:06.407Z,88.07
2023-05-07T06:39:08.469Z,88.11
2023-05-07T06:40:10.942Z,87.68
2023-05-07T06:41:13.108Z,87.70
2023-05-07T06:42:15.021Z,87.61
2023-05-07T06:43:16.870Z,87.30
2023-05-07T06:44:18.782Z,87.32
2023-05-07T06:45:21.394Z,86.95
2023-05-07T06:46:23.468Z,86.88
2023-05-07T06:47:25.376Z,87.01
2023-05-07T06:48:27.261Z,86.39
2023-05-07T06:49:29.204Z,85.81
2023-05-07T06:50:31.128Z,85.94
2023-05-07T06:51:33.155Z,85.83
2023-05-07T06:52:34.992Z,85.69
2023-05-07T06:53:36.866Z,85.97
2023-05-07T06:54:38.785Z,85.81
2023-05-07T06:55:40.586Z,85.60
2023-05-07T06:56:43.195Z,85.08
2023-05-07T06:57:44.996Z,85.22
2023-05-07T06:58:46.810Z,85.45
2023-05-07T06:59:48.801Z,86.29
2023-05-07T07:00:50.733Z,85.38
2023-05-07T07:01:52.722Z,85.59
2023-05-07T07:02:55.203Z,86.13
2023-05-07T07:03:57.080Z,85.12
2023-05-07T07:04:58.945Z,84.71
2023-05-07T07:06:00.941Z,84.37
2023-05-07T07:07:02.857Z,84.81
2023-05-07T07:08:04.833Z,85.05
2023-05-07T07:09:06.736Z,85.01
2023-05-07T07:10:09.002Z,84.17
2023-05-07T07:11:11.454Z,84.13
2023-05-07T07:12:13.366Z,83.92
2023-05-07T07:13:15.278Z,83.58
2023-05-07T07:14:17.290Z,84.15
2023-05-07T07:15:19.223Z,84.12
2023-05-07T07:16:21.842Z,83.93
2023-05-07T07:17:23.778Z,83.24
2023-05-07T07:18:25.853Z,83.40
2023-05-07T07:19:27.804Z,83.60
2023-05-07T07:20:29.700Z,84.00
2023-05-07T07:21:31.967Z,84.24
2023-05-07T07:22:35.871Z,85.08
2023-05-07T07:23:37.783Z,84.74
2023-05-07T07:24:39.576Z,84.06
2023-05-07T07:25:41.904Z,83.80
2023-05-07T07:26:44.013Z,85.03
2023-05-07T07:27:46.064Z,83.64
2023-05-07T07:28:48.119Z,83.66
2023-05-07T07:29:50.059Z,83.95
2023-05-07T07:30:51.887Z,84.05
2023-05-07T07:31:53.736Z,83.54
2023-05-07T07:32:57.495Z,83.64
2023-05-07T07:33:59.386Z,83.75
2023-05-07T07:35:01.449Z,82.99
2023-05-07T07:36:03.486Z,82.67
2023-05-07T07:37:07.400Z,82.22
2023-05-07T07:38:09.303Z,82.76
2023-05-07T07:39:11.221Z,82.56
2023-05-07T07:40:13.527Z,80.16
2023-05-07T07:41:15.650Z,80.19
2023-05-07T07:42:17.606Z,81.08
2023-05-07T07:43:19.502Z,80.63
2023-05-07T07:44:21.872Z,80.97
2023-05-07T07:45:23.721Z,80.97
2023-05-07T07:46:25.648Z,81.80
2023-05-07T07:47:27.533Z,81.85
2023-05-07T07:48:29.449Z,82.76
2023-05-07T07:49:31.406Z,82.75
2023-05-07T07:50:43.555Z,83.55
2023-05-07T07:51:47.319Z,81.50
2023-05-07T07:52:49.885Z,81.25
2023-05-07T07:53:51.767Z,82.39
2023-05-07T07:54:53.739Z,81.37
2023-05-07T07:55:59.407Z,81.19
2023-05-07T07:57:02.814Z,81.18
2023-05-07T07:58:04.583Z,80.80
2023-05-07T07:59:06.478Z,81.67
2023-05-07T08:00:08.880Z,81.82
2023-05-07T08:01:11.230Z,82.24
2023-05-07T08:02:13.119Z,81.32
2023-05-07T08:03:15.784Z,80.51
2023-05-07T08:04:17.719Z,82.11
2023-05-07T08:05:19.688Z,82.81
2023-05-07T08:06:21.592Z,83.27
2023-05-07T08:07:24.253Z,82.66
2023-05-07T08:08:26.102Z,83.29
2023-05-07T08:09:28.033Z,82.28
2023-05-07T08:10:29.896Z,80.71
2023-05-07T08:11:31.847Z,81.82
2023-05-07T08:12:33.863Z,82.77
2023-05-07T08:13:35.916Z,83.12
2023-05-07T08:14:38.347Z,81.63
2023-05-07T08:15:40.253Z,78.75
2023-05-07T08:16:42.249Z,79.12
2023-05-07T08:17:44.524Z,78.57
2023-05-07T08:18:46.405Z,78.08
2023-05-07T08:19:48.331Z,78.24
2023-05-07T08:20:50.243Z,77.62
2023-05-07T08:21:52.180Z,77.43
2023-05-07T08:22:54.158Z,78.14
2023-05-07T08:23:56.062Z,79.54
2023-05-07T08:24:57.885Z,78.96
2023-05-07T08:26:00.188Z,80.95
2023-05-07T08:27:02.101Z,78.98
2023-05-07T08:28:04.753Z,78.94
2023-05-07T08:29:06.819Z,79.86
2023-05-07T08:30:09.148Z,79.06
2023-05-07T08:31:11.438Z,77.93
2023-05-07T08:32:13.354Z,77.52
2023-05-07T08:33:15.230Z,78.85
2023-05-07T08:34:17.186Z,81.60
2023-05-07T08:35:19.030Z,79.09
2023-05-07T08:36:20.948Z,77.75
2023-05-07T08:37:22.918Z,80.16
2023-05-07T08:38:24.775Z,79.93
2023-05-07T08:39:26.561Z,77.57
2023-05-07T08:40:28.922Z,77.35
2023-05-07T08:41:30.923Z,76.16
2023-05-07T08:42:33.560Z,78.23
2023-05-07T08:43:37.858Z,78.54
2023-05-07T08:44:41.175Z,77.12
2023-05-07T08:45:43.113Z,79.07
2023-05-07T08:46:48.480Z,78.16
2023-05-07T08:47:56.022Z,77.79
2023-05-07T08:48:57.893Z,76.64
2023-05-07T08:49:59.805Z,76.19
2023-05-07T08:51:02.145Z,77.36
2023-05-07T08:52:04.117Z,77.35
2023-05-07T08:53:06.677Z,76.35
2023-05-07T08:54:08.820Z,78.50
2023-05-07T08:55:11.448Z,78.54
2023-05-07T08:56:13.487Z,79.22
2023-05-07T08:57:15.345Z,80.06
2023-05-07T08:58:17.253Z,80.56
2023-05-07T08:59:19.030Z,78.34
2023-05-07T09:00:21.115Z,77.92
2023-05-07T09:01:23.268Z,77.27
2023-05-07T09:02:25.217Z,76.01
2023-05-07T09:03:27.280Z,74.55
2023-05-07T09:04:29.278Z,74.63
2023-05-07T09:05:31.268Z,74.78
2023-05-07T09:06:33.079Z,76.50
2023-05-07T09:07:35.175Z,75.04
2023-05-07T09:08:37.307Z,76.09
2023-05-07T09:09:39.137Z,78.35
2023-05-07T09:10:41.064Z,76.78
2023-05-07T09:11:42.929Z,76.18
2023-05-07T09:12:44.852Z,75.74
2023-05-07T09:13:46.900Z,76.74
2023-05-07T09:14:48.778Z,75.70
2023-05-07T09:15:50.695Z,76.25
2023-05-07T09:16:55.417Z,75.05
2023-05-07T09:18:02.219Z,73.76
2023-05-07T09:19:04.441Z,76.11
2023-05-07T09:20:09.286Z,75.18
2023-05-07T09:21:12.738Z,74.00
2023-05-07T09:22:14.683Z,72.63
2023-05-07T09:23:16.718Z,73.95
2023-05-07T09:24:18.615Z,76.70
2023-05-07T09:25:29.078Z,73.39
2023-05-07T09:26:30.924Z,72.08
2023-05-07T09:27:32.775Z,72.64
2023-05-07T09:28:34.659Z,73.42
2023-05-07T09:29:36.799Z,72.00
2023-05-07T09:30:38.784Z,73.82
2023-05-07T09:31:41.039Z,73.10
2023-05-07T09:32:42.976Z,72.66
2023-05-07T09:33:44.866Z,72.69
2023-05-07T09:34:48.720Z,73.38
2023-05-07T09:35:53.316Z,71.31
2023-05-07T09:36:55.176Z,71.26
2023-05-07T09:37:58.080Z,71.34
2023-05-07T09:39:02.770Z,71.40
2023-05-07T09:40:04.858Z,71.52
2023-05-07T09:41:08.465Z,71.28
2023-05-07T09:42:10.600Z,69.69
2023-05-07T09:43:13.102Z,69.89
2023-05-07T09:44:15.581Z,70.19
2023-05-07T09:45:18.094Z,69.58
2023-05-07T09:46:21.614Z,68.95
2023-05-07T09:47:25.790Z,69.94
2023-05-07T09:48:28.747Z,70.83
2023-05-07T09:49:31.580Z,69.00
2023-05-07T09:50:45.290Z,67.82
2023-05-07T09:51:49.459Z,70.64
2023-05-07T09:52:51.310Z,71.52
2023-05-07T09:53:54.078Z,68.85
2023-05-07T09:54:57.182Z,67.79
2023-05-07T09:55:59.981Z,67.36
2023-05-07T09:57:04.322Z,69.81
2023-05-07T09:58:07.204Z,70.05
2023-05-07T09:59:09.682Z,68.34
2023-05-07T10:00:12.125Z,68.85
2023-05-07T10:01:14.664Z,62.62
2023-05-07T10:02:17.146Z,64.00
2023-05-07T10:03:21.069Z,69.12
2023-05-07T10:04:23.180Z,66.84
2023-05-07T10:05:25.716Z,62.87
2023-05-07T10:06:27.928Z,64.16
2023-05-07T10:07:30.557Z,64.63
2023-05-07T10:08:32.836Z,63.15
2023-05-07T10:09:36.704Z,64.59
2023-05-07T10:10:39.179Z,63.11
2023-05-07T10:11:41.851Z,63.62
2023-05-07T10:12:43.809Z,62.75
2023-05-07T10:13:47.685Z,62.54
2023-05-07T10:14:50.124Z,64.67
2023-05-07T10:15:52.362Z,60.98
2023-05-07T10:16:55.074Z,60.61
2023-05-07T10:17:57.264Z,64.75
2023-05-07T10:19:00.090Z,60.78
2023-05-07T10:20:04.323Z,61.08
2023-05-07T10:21:12.620Z,61.39
2023-05-07T10:22:15.230Z,61.99
2023-05-07T10:23:20.603Z,60.74
2023-05-07T10:24:32.849Z,59.05
2023-05-07T10:25:34.754Z,61.33
2023-05-07T10:26:37.048Z,61.61
2023-05-07T10:27:39.315Z,61.94
2023-05-07T10:28:42.428Z,59.58
2023-05-07T10:30:03.012Z,61.38
2023-05-07T10:31:20.183Z,59.93
2023-05-07T10:32:42.493Z,59.72
2023-05-07T10:33:46.956Z,60.98
2023-05-07T10:34:50.085Z,59.95
2023-05-07T10:35:52.124Z,58.93
2023-05-07T10:36:54.642Z,56.27
2023-05-07T10:37:56.654Z,58.50
2023-05-07T10:38:58.512Z,58.69
2023-05-07T10:40:00.453Z,58.07
2023-05-07T10:41:02.935Z,57.24
2023-05-07T10:42:11.803Z,58.36
2023-05-07T10:43:13.677Z,58.17
2023-05-07T10:44:41.655Z,57.23
2023-05-07T10:45:43.630Z,55.02
2023-05-07T10:47:05.645Z,55.87
2023-05-07T10:48:20.882Z,55.23
2023-05-07T10:49:29.267Z,52.87
2023-05-07T10:50:31.264Z,53.66
2023-05-07T10:51:34.380Z,54.81
2023-05-07T10:52:36.469Z,53.24
2023-05-07T10:53:38.309Z,53.86
2023-05-07T10:54:40.312Z,53.37
2023-05-07T10:55:42.230Z,51.43
2023-05-07T10:56:44.485Z,53.87
2023-05-07T10:57:46.290Z,53.98
2023-05-07T10:58:48.090Z,51.60
2023-05-07T10:59:50.525Z,52.05
2023-05-07T11:00:53.789Z,50.14
2023-05-07T11:01:57.342Z,50.80
2023-05-07T11:03:02.387Z,49.80
2023-05-07T11:04:17.032Z,50.09
2023-05-07T11:05:22.801Z,50.02
2023-05-07T11:06:24.922Z,51.87
2023-05-07T11:07:28.073Z,48.87
2023-05-07T11:08:49.863Z,50.02
2023-05-07T11:09:54.808Z,49.44
2023-05-07T11:10:58.625Z,46.58
2023-05-07T11:12:00.521Z,50.01
2023-05-07T11:13:02.526Z,49.75
2023-05-07T11:14:04.447Z,49.83
2023-05-07T11:15:13.219Z,49.25
2023-05-07T11:16:34.909Z,50.24
2023-05-07T11:17:54.057Z,51.28
2023-05-07T11:18:56.852Z,48.75
2023-05-07T11:19:59.282Z,50.22
2023-05-07T11:21:01.218Z,52.11
2023-05-07T11:22:03.198Z,50.81
2023-05-07T11:23:05.037Z,51.52
2023-05-07T11:24:08.082Z,50.95
2023-05-07T11:25:10.124Z,51.83
2023-05-07T11:26:15.799Z,51.36
2023-05-07T11:27:24.387Z,48.20
2023-05-07T11:28:27.027Z,49.74
2023-05-07T11:29:30.353Z,49.82
2023-05-07T11:30:32.708Z,50.34
2023-05-07T11:31:34.740Z,49.62
2023-05-07T11:32:36.835Z,51.47
2023-05-07T11:33:39.002Z,48.63
2023-05-07T11:34:41.053Z,48.74
2023-05-07T11:35:43.681Z,51.02
2023-05-07T11:36:46.608Z,50.25
2023-05-07T11:37:49.362Z,49.71
2023-05-07T11:38:51.258Z,48.66
2023-05-07T11:40:03.431Z,48.80
2023-05-07T11:41:06.655Z,48.46
2023-05-07T11:42:09.367Z,47.47
2023-05-07T11:43:14.219Z,46.79
2023-05-07T11:44:16.069Z,49.80
2023-05-07T11:45:25.354Z,46.21
2023-05-07T11:46:28.492Z,45.61
2023-05-07T11:47:34.051Z,44.84
2023-05-07T11:48:36.120Z,46.28
2023-05-07T11:49:38.123Z,46.53
2023-05-07T11:51:00.211Z,47.30
2023-05-07T11:52:02.149Z,46.54
2023-05-07T11:53:09.780Z,46.24
2023-05-07T11:54:12.693Z,47.32
2023-05-07T11:55:14.662Z,47.97
2023-05-07T11:56:17.835Z,48.64
2023-05-07T11:57:19.897Z,48.15
2023-05-07T11:58:23.157Z,45.93
2023-05-07T11:59:24.979Z,46.97
2023-05-07T12:00:26.827Z,47.60
2023-05-07T12:01:28.712Z,46.01
2023-05-07T12:02:31.157Z,46.30
2023-05-07T12:03:36.247Z,46.59
2023-05-07T12:04:39.833Z,44.74
2023-05-07T12:05:43.118Z,44.86
2023-05-07T12:06:44.919Z,46.59
2023-05-07T12:07:46.795Z,44.51
2023-05-07T12:08:48.755Z,45.69
2023-05-07T12:09:51.575Z,44.18
2023-05-07T12:10:53.768Z,44.62
2023-05-07T12:11:57.498Z,45.72
2023-05-07T12:12:59.463Z,43.35
2023-05-07T12:14:01.290Z,44.13
2023-05-07T12:15:03.119Z,43.50
2023-05-07T12:16:05.779Z,44.83
2023-05-07T12:17:09.133Z,43.32
2023-05-07T12:18:11.783Z,42.93
2023-05-07T12:19:15.737Z,41.93
2023-05-07T12:20:18.371Z,44.13
2023-05-07T12:21:20.767Z,42.32
2023-05-07T12:22:22.655Z,44.37
2023-05-07T12:23:24.894Z,44.53
2023-05-07T12:24:27.356Z,42.03
2023-05-07T12:25:47.978Z,43.42
2023-05-07T12:26:50.176Z,39.59
2023-05-07T12:27:55.085Z,43.07
2023-05-07T12:28:58.770Z,41.93
2023-05-07T12:30:00.685Z,41.98
2023-05-07T12:31:02.865Z,41.57
2023-05-07T12:32:07.046Z,43.33
2023-05-07T12:33:09.221Z,43.39
2023-05-07T12:34:13.955Z,42.70
2023-05-07T12:35:16.005Z,43.40
2023-05-07T12:36:17.897Z,44.83
2023-05-07T12:37:24.428Z,41.50
2023-05-07T12:38:26.358Z,42.83
2023-05-07T12:39:28.239Z,42.97
2023-05-07T12:40:40.028Z,40.93
2023-05-07T12:41:57.089Z,41.91
2023-05-07T12:43:00.867Z,40.63
2023-05-07T12:44:05.421Z,41.21
2023-05-07T12:45:11.778Z,42.24
2023-05-07T12:46:15.809Z,40.98
2023-05-07T12:47:17.774Z,42.49
2023-05-07T12:48:21.169Z,42.20
2023-05-07T12:49:25.454Z,41.44
2023-05-07T12:50:27.494Z,41.31
2023-05-07T12:51:29.608Z,39.19
2023-05-07T12:52:32.958Z,39.69
2023-05-07T12:53:35.147Z,41.55
2023-05-07T12:54:39.175Z,41.61
2023-05-07T12:55:43.912Z,40.45
2023-05-07T12:56:45.845Z,38.30
2023-05-07T12:57:49.685Z,38.53
2023-05-07T12:58:51.651Z,40.45
2023-05-07T12:59:58.932Z,40.40
2023-05-07T13:01:02.086Z,40.94
2023-05-07T13:02:04.506Z,39.19
2023-05-07T13:03:06.711Z,40.57
2023-05-07T13:04:08.778Z,40.70
2023-05-07T13:05:10.962Z,41.53
2023-05-07T13:06:14.136Z,40.93
2023-05-07T13:07:16.085Z,40.25
2023-05-07T13:08:28.046Z,37.18
2023-05-07T13:09:30.630Z,41.06
2023-05-07T13:10:32.550Z,39.47
2023-05-07T13:11:34.469Z,37.29
2023-05-07T13:12:36.317Z,38.11
2023-05-07T13:13:40.011Z,38.07
2023-05-07T13:14:41.890Z,39.25
2023-05-07T13:15:43.733Z,41.57
2023-05-07T13:16:45.554Z,39.55
2023-05-07T13:17:47.810Z,40.49
2023-05-07T13:18:49.884Z,39.87
2023-05-07T13:19:51.902Z,39.44
2023-05-07T13:20:54.420Z,39.33
2023-05-07T13:21:56.331Z,38.66
2023-05-07T13:22:58.204Z,40.86
2023-05-07T13:24:00.197Z,37.54
2023-05-07T13:25:02.048Z,38.99
2023-05-07T13:26:08.559Z,38.82
2023-05-07T13:27:16.791Z,38.31
2023-05-07T13:28:18.666Z,39.35